Nanticoke — VCQL — position and weather

sailwx.info

Track history (hours):
 
Tides and Currents Weather Stations Pressure Air Temp Water Temp Dewpoint Dewpoint Depression Visibility Wind Speed Wind Dir Waves Ship Positions

Nanticoke

Last reported at 2015-Jan-17 20:26 UTC. Time now 2015-Jan-30 06:27 UTC.
Position N 47°11' W 052°28'.
Warning: this ship's position is 12 days out of date.

Length 222 m; draft 7.1 m.

Type: Cargo ship. MMSI: 316043000.

Date/timePositionNaut miles runAvg speedWind from/ knotsBaromVisibWave heightAir tempDewpointWater temp
2015-Jan-17 20:26N 47°11' W 052°28'1011.0
2015-Jan-17 19:31N 47°21' W 052°23'1110.8
2015-Jan-17 18:32N 47°31' W 052°18'1111.1
2015-Jan-17 17:31N 47°42' W 052°21'11 0.6
2015-Jan-17 00:19N 47°42' W 052°38'811.0
2015-Jan-16 23:33N 47°34' W 052°35'1110.9
2015-Jan-16 22:30N 47°23' W 052°37'  
2015-Jan-11 08:34N 46°26' W 072°16'1312.9
2015-Jan-11 07:33N 46°20' W 072°33'0 0.2
2015-Jan-11 06:33N 46°20' W 072°33'0 0.0
2015-Jan-11 05:33N 46°20' W 072°33'0 0.0
2015-Jan-11 04:33N 46°20' W 072°33'0 0.0
2015-Jan-11 03:33N 46°20' W 072°33'0 0.0
2015-Jan-11 02:33N 46°20' W 072°33'0 0.0
2015-Jan-11 01:33N 46°20' W 072°33'0 0.0
2015-Jan-11 00:33N 46°20' W 072°33'0 0.0
2015-Jan-10 23:33N 46°20' W 072°33'0 0.0
2015-Jan-10 22:33N 46°20' W 072°33'0 0.0
2015-Jan-10 21:33N 46°20' W 072°33'0 0.0
2015-Jan-10 20:33N 46°20' W 072°33'0 0.0
2015-Jan-10 19:33N 46°20' W 072°33'2 1.7
2015-Jan-10 18:33N 46°21' W 072°31'8 8.1
2015-Jan-10 17:33N 46°26' W 072°21'7 7.3
2015-Jan-10 16:33N 46°31' W 072°14'8 7.7
2015-Jan-10 15:32N 46°34' W 072°03'10 9.6
2015-Jan-10 14:28N 46°41' W 071°52'  
Track history (hours):
 
Tides and Currents Weather Stations Pressure Air Temp Water Temp Dewpoint Dewpoint Depression Visibility Wind Speed Wind Dir Waves Ship Positions

Nanticoke

Last reported at 2015-Jan-17 20:26 UTC. Time now 2015-Jan-30 06:27 UTC.
Position N 47°11' W 052°28'.
Warning: this ship's position is 12 days out of date.

Length 222 m; draft 7.1 m.

Type: Cargo ship. MMSI: 316043000.

Date/timePositionNaut miles runAvg speedWind from/ knotsBaromVisibWave heightAir tempDewpointWater temp
2015-Jan-17 20:26N 47°11' W 052°28'1011.0
2015-Jan-17 19:31N 47°21' W 052°23'1110.8
2015-Jan-17 18:32N 47°31' W 052°18'1111.1
2015-Jan-17 17:31N 47°42' W 052°21'11 0.6
2015-Jan-17 00:19N 47°42' W 052°38'811.0
2015-Jan-16 23:33N 47°34' W 052°35'1110.9
2015-Jan-16 22:30N 47°23' W 052°37'  
2015-Jan-11 08:34N 46°26' W 072°16'1312.9
2015-Jan-11 07:33N 46°20' W 072°33'0 0.2
2015-Jan-11 06:33N 46°20' W 072°33'0 0.0
2015-Jan-11 05:33N 46°20' W 072°33'0 0.0
2015-Jan-11 04:33N 46°20' W 072°33'0 0.0
2015-Jan-11 03:33N 46°20' W 072°33'0 0.0
2015-Jan-11 02:33N 46°20' W 072°33'0 0.0
2015-Jan-11 01:33N 46°20' W 072°33'0 0.0
2015-Jan-11 00:33N 46°20' W 072°33'0 0.0
2015-Jan-10 23:33N 46°20' W 072°33'0 0.0
2015-Jan-10 22:33N 46°20' W 072°33'0 0.0
2015-Jan-10 21:33N 46°20' W 072°33'0 0.0
2015-Jan-10 20:33N 46°20' W 072°33'0 0.0
2015-Jan-10 19:33N 46°20' W 072°33'2 1.7
2015-Jan-10 18:33N 46°21' W 072°31'8 8.1
2015-Jan-10 17:33N 46°26' W 072°21'7 7.3
2015-Jan-10 16:33N 46°31' W 072°14'8 7.7
2015-Jan-10 15:32N 46°34' W 072°03'10 9.6
2015-Jan-10 14:28N 46°41' W 071°52'  

Dump ship's entire track history